Time;durP1;ratioP1;P1;durP2;ratioP2;P2;SDS_P1;SDS_P2;PMS_P1;PMS_P2;Temp;Humidity;BMP_temperature;BMP_pressure;BME280_temperature;BME280_humidity;BME280_pressure;Samples;Min_cycle;Max_cycle;Signal;HPM_P1;HPM_P2
2022/12/03 00:00:44;;;;;;;12.80;8.25;;;5.30;82.20;;;;;;5073755;28;20475;-14
2022/12/03 00:03:10;;;;;;;13.52;8.45;;;5.30;82.40;;;;;;5073834;28;20024;-15
2022/12/03 00:05:36;;;;;;;14.88;8.35;;;5.20;82.70;;;;;;5074193;28;20483;-15
2022/12/03 00:08:02;;;;;;;16.85;8.73;;;5.20;83.00;;;;;;5073224;28;20053;-16
2022/12/03 00:10:28;;;;;;;13.75;8.73;;;5.20;83.20;;;;;;5073525;28;20033;-15
2022/12/03 00:12:54;;;;;;;14.55;9.00;;;5.20;83.60;;;;;;5073176;28;20032;-15
2022/12/03 00:15:20;;;;;;;13.95;8.15;;;5.20;83.50;;;;;;5073651;28;20033;-14
2022/12/03 00:17:46;;;;;;;15.85;9.23;;;5.20;83.20;;;;;;5073474;28;20023;-16
2022/12/03 00:20:23;;;;;;;14.50;8.32;;;5.20;83.30;;;;;;5073666;28;20024;-16
2022/12/03 00:22:49;;;;;;;14.68;8.52;;;5.30;82.90;;;;;;5073412;28;20028;-15
2022/12/03 00:25:16;;;;;;;13.52;8.20;;;5.30;83.20;;;;;;5073822;28;20488;-15
2022/12/03 00:27:42;;;;;;;14.18;7.93;;;5.30;83.10;;;;;;5073088;28;20040;-13
2022/12/03 00:30:09;;;;;;;13.57;8.00;;;5.20;83.00;;;;;;5055674;28;20032;-14
2022/12/03 00:32:35;;;;;;;11.77;7.00;;;5.30;82.80;;;;;;5073395;28;20058;-15
2022/12/03 00:35:01;;;;;;;12.48;7.20;;;5.30;82.50;;;;;;5073220;28;20117;-14
2022/12/03 00:37:27;;;;;;;12.35;6.93;;;5.30;82.00;;;;;;5073034;28;20579;-15
2022/12/03 00:39:52;;;;;;;12.95;6.93;;;5.30;81.90;;;;;;5073181;28;20484;-14
2022/12/03 00:42:18;;;;;;;11.57;6.80;;;5.30;81.80;;;;;;5072928;28;20107;-15
2022/12/03 00:44:44;;;;;;;13.48;6.88;;;5.30;81.70;;;;;;5072872;28;20025;-14
2022/12/03 00:47:10;;;;;;;11.13;6.53;;;5.30;81.90;;;;;;5072650;28;20137;-14
2022/12/03 00:49:36;;;;;;;12.55;7.53;;;5.30;81.70;;;;;;5072850;28;20052;-15
2022/12/03 00:52:02;;;;;;;13.60;7.75;;;5.40;81.40;;;;;;5072861;28;20360;-14
2022/12/03 00:54:27;;;;;;;9.95;6.10;;;5.30;81.60;;;;;;5073068;28;20035;-14
2022/12/03 00:56:53;;;;;;;11.32;7.15;;;5.30;81.20;;;;;;5072475;28;20361;-14
2022/12/03 00:59:19;;;;;;;12.85;7.13;;;5.40;81.10;;;;;;5072749;28;20032;-13
2022/12/03 01:01:45;;;;;;;13.57;7.57;;;5.40;81.10;;;;;;5072279;28;20039;-13
2022/12/03 01:04:11;;;;;;;12.73;7.65;;;5.40;81.10;;;;;;5072938;28;20059;-14
2022/12/03 01:06:36;;;;;;;15.60;8.55;;;5.40;80.90;;;;;;5072619;28;20025;-15
2022/12/03 01:09:02;;;;;;;14.25;8.38;;;5.40;81.10;;;;;;5071928;28;20050;-14
2022/12/03 01:11:37;;;;;;;13.05;8.13;;;5.40;81.00;;;;;;5073013;28;20086;-14
2022/12/03 01:14:13;;;;;;;15.65;8.65;;;5.40;80.80;;;;;;5072915;28;20024;-15
2022/12/03 01:16:40;;;;;;;15.23;8.60;;;5.40;80.70;;;;;;5072550;28;20070;-15
2022/12/03 01:19:09;;;;;;;15.45;10.10;;;5.40;80.70;;;;;;5072676;28;20077;-15
2022/12/03 01:21:36;;;;;;;16.88;9.75;;;5.40;80.80;;;;;;5072506;28;20028;-15
2022/12/03 01:24:03;;;;;;;15.50;9.15;;;5.40;81.40;;;;;;5072743;28;20108;-14
2022/12/03 01:26:29;;;;;;;17.83;9.95;;;5.40;81.30;;;;;;5072373;28;20400;-14
2022/12/03 01:28:55;;;;;;;15.98;9.30;;;5.40;81.40;;;;;;5072449;28;20024;-15
2022/12/03 01:34:05;;;;;;;14.15;8.60;;;5.50;81.70;;;;;;5072735;28;20039;-17
2022/12/03 01:36:33;;;;;;;17.48;9.80;;;5.60;81.90;;;;;;5072362;28;20516;-15
2022/12/03 01:38:59;;;;;;;16.02;9.65;;;5.60;81.90;;;;;;5072449;28;20121;-15
2022/12/03 01:41:26;;;;;;;15.85;9.63;;;5.70;82.20;;;;;;5072516;28;20027;-16
2022/12/03 01:43:53;;;;;;;20.05;10.27;;;5.70;82.10;;;;;;5072522;28;20024;-16
2022/12/03 01:46:22;;;;;;;16.95;9.80;;;5.80;81.90;;;;;;5072349;28;20037;-15
2022/12/03 01:48:51;;;;;;;19.13;9.60;;;5.80;81.50;;;;;;5072098;28;20032;-15
2022/12/03 01:51:17;;;;;;;16.88;10.00;;;5.90;81.60;;;;;;5070960;28;20025;-16
2022/12/03 01:53:44;;;;;;;15.13;9.43;;;5.90;81.70;;;;;;5072152;28;20021;-14
2022/12/03 01:56:17;;;;;;;16.45;9.73;;;5.90;81.60;;;;;;5072606;28;20040;-14
2022/12/03 01:58:45;;;;;;;16.02;9.13;;;5.90;81.90;;;;;;5072807;28;20440;-14
2022/12/03 02:01:16;;;;;;;14.70;8.70;;;5.90;81.90;;;;;;5072251;28;20028;-15
2022/12/03 02:03:43;;;;;;;14.85;8.52;;;6.00;81.80;;;;;;5073113;28;20391;-16
2022/12/03 02:06:16;;;;;;;15.25;8.80;;;6.00;81.80;;;;;;5072426;28;20055;-15
2022/12/03 02:08:42;;;;;;;16.20;8.52;;;6.00;82.00;;;;;;5070909;28;20079;-15
2022/12/03 02:11:24;;;;;;;14.50;8.40;;;6.00;82.10;;;;;;5071784;28;20500;-14
2022/12/03 02:13:54;;;;;;;14.13;7.95;;;6.00;82.00;;;;;;5075418;28;20028;-14
2022/12/03 02:16:21;;;;;;;13.30;7.85;;;6.10;82.10;;;;;;5075792;28;20125;-15
2022/12/03 02:18:47;;;;;;;15.27;8.73;;;6.10;82.00;;;;;;5076349;28;20021;-16
2022/12/03 02:21:37;;;;;;;14.18;8.20;;;6.10;82.00;;;;;;5075945;28;20031;-14
2022/12/03 02:24:31;;;;;;;13.70;8.10;;;6.10;81.90;;;;;;5075908;28;20361;-16
2022/12/03 02:26:57;;;;;;;12.77;7.88;;;6.20;81.80;;;;;;5075296;28;20025;-15
2022/12/03 02:29:23;;;;;;;14.65;8.55;;;6.20;81.90;;;;;;5075580;28;20043;-15
2022/12/03 02:31:49;;;;;;;12.57;7.38;;;6.20;81.60;;;;;;5075377;28;20115;-15
2022/12/03 02:34:51;;;;;;;14.23;8.10;;;6.20;81.30;;;;;;5075702;28;20028;-15
2022/12/03 02:37:23;;;;;;;13.15;7.47;;;6.30;80.90;;;;;;5033486;28;20469;-15
2022/12/03 02:39:54;;;;;;;11.93;6.93;;;6.30;80.90;;;;;;5033333;28;20041;-14
2022/12/03 02:42:33;;;;;;;10.45;6.47;;;6.40;80.70;;;;;;5016980;28;20040;-14
2022/12/03 02:45:09;;;;;;;12.52;7.15;;;6.40;80.70;;;;;;5033106;28;20036;-15
2022/12/03 02:47:50;;;;;;;13.00;7.50;;;6.50;80.50;;;;;;5033906;28;20061;-14
2022/12/03 02:50:20;;;;;;;12.93;7.97;;;6.50;80.50;;;;;;5033301;28;20073;-15
2022/12/03 02:52:48;;;;;;;12.93;8.02;;;6.50;80.40;;;;;;5033077;28;20117;-15
2022/12/03 02:55:16;;;;;;;16.08;9.27;;;6.50;80.60;;;;;;5033032;28;20029;-14
2022/12/03 02:57:45;;;;;;;16.77;8.68;;;6.60;80.70;;;;;;5033018;28;20061;-15
2022/12/03 03:00:12;;;;;;;15.15;8.98;;;6.60;80.70;;;;;;5032766;28;20057;-15
2022/12/03 03:02:40;;;;;;;16.55;9.15;;;6.50;80.60;;;;;;5032878;28;20038;-14
2022/12/03 03:05:08;;;;;;;16.20;9.10;;;6.50;80.50;;;;;;5033086;28;20025;-14
2022/12/03 03:07:35;;;;;;;14.65;8.38;;;6.50;80.40;;;;;;5032948;28;20502;-15
2022/12/03 03:10:03;;;;;;;17.02;9.93;;;6.50;80.40;;;;;;5032744;28;20044;-15
2022/12/03 03:12:30;;;;;;;15.20;8.25;;;6.50;80.40;;;;;;5074626;28;20028;-15
2022/12/03 03:14:57;;;;;;;17.08;9.95;;;6.50;80.30;;;;;;5074482;28;20033;-14
2022/12/03 03:17:23;;;;;;;14.60;8.60;;;6.50;80.20;;;;;;5074639;28;20018;-15
2022/12/03 03:19:49;;;;;;;18.92;9.95;;;6.50;80.30;;;;;;5073244;28;20373;-14
2022/12/03 03:22:16;;;;;;;15.43;9.23;;;6.50;80.60;;;;;;5073368;28;20131;-14
2022/12/03 03:24:42;;;;;;;15.65;9.60;;;6.50;80.30;;;;;;5073568;28;20078;-15
2022/12/03 03:27:08;;;;;;;19.10;10.48;;;6.50;80.30;;;;;;5074103;28;20123;-15
2022/12/03 03:29:35;;;;;;;17.27;9.43;;;6.50;80.20;;;;;;5074464;28;20036;-16
2022/12/03 03:32:01;;;;;;;18.23;10.23;;;6.50;80.40;;;;;;5073267;28;20027;-14
2022/12/03 03:34:31;;;;;;;16.02;9.30;;;6.40;80.40;;;;;;5074396;28;20017;-14
2022/12/03 03:36:57;;;;;;;14.40;8.98;;;6.40;80.30;;;;;;5074083;28;20021;-14
2022/12/03 03:39:23;;;;;;;15.65;9.07;;;6.40;80.40;;;;;;5074305;28;20099;-15
2022/12/03 03:41:49;;;;;;;17.80;9.00;;;6.50;80.40;;;;;;5072738;28;20044;-15
2022/12/03 03:44:15;;;;;;;13.68;8.23;;;6.50;80.30;;;;;;5074299;28;20033;-16
2022/12/03 03:46:42;;;;;;;13.85;8.52;;;6.50;80.30;;;;;;5074218;28;20146;-14
2022/12/03 03:49:09;;;;;;;15.88;10.52;;;6.50;80.30;;;;;;5073846;28;20099;-14
2022/12/03 03:51:37;;;;;;;15.95;8.52;;;6.50;80.70;;;;;;5072701;28;20464;-14
2022/12/03 03:54:04;;;;;;;16.25;9.63;;;6.50;80.50;;;;;;5074152;28;20033;-14
2022/12/03 03:56:32;;;;;;;18.33;10.35;;;6.60;80.70;;;;;;5073874;28;20036;-15
2022/12/03 03:58:58;;;;;;;16.15;9.70;;;6.50;80.90;;;;;;5074067;28;20064;-14
2022/12/03 04:01:25;;;;;;;15.38;8.93;;;6.60;80.90;;;;;;5074058;28;20028;-14
2022/12/03 04:03:52;;;;;;;12.60;7.95;;;6.50;80.90;;;;;;5074040;28;20044;-14
2022/12/03 04:06:19;;;;;;;11.32;6.80;;;6.60;80.80;;;;;;5073884;28;20100;-15
2022/12/03 04:08:45;;;;;;;13.23;7.30;;;6.60;80.60;;;;;;5072042;28;20060;-15
2022/12/03 04:13:55;;;;;;;15.63;9.18;;;6.70;80.50;;;;;;5073537;28;20039;-15
2022/12/03 04:16:21;;;;;;;12.07;6.93;;;6.70;80.60;;;;;;5073445;28;20377;-14
2022/12/03 04:18:46;;;;;;;13.40;7.47;;;6.70;80.50;;;;;;5073622;28;20036;-15
2022/12/03 04:24:04;;;;;;;13.75;8.02;;;6.80;80.30;;;;;;5073574;28;20043;-16
2022/12/03 04:29:14;;;;;;;13.50;7.55;;;6.90;80.60;;;;;;5073481;28;20472;-15
2022/12/03 04:37:09;;;;;;;12.38;7.28;;;6.80;80.40;;;;;;5073261;28;20059;-16
2022/12/03 04:39:35;;;;;;;11.48;6.82;;;6.80;80.40;;;;;;5071636;28;20468;-15
2022/12/03 04:42:02;;;;;;;13.48;7.22;;;6.80;80.60;;;;;;5073039;28;20036;-13
2022/12/03 04:44:37;;;;;;;12.93;7.15;;;6.80;80.60;;;;;;5073157;28;20543;-16
2022/12/03 04:47:06;;;;;;;15.00;8.20;;;6.80;80.60;;;;;;5073198;28;20086;-15
2022/12/03 04:49:33;;;;;;;13.43;7.28;;;6.80;80.50;;;;;;5072909;28;20109;-15
2022/12/03 04:51:59;;;;;;;14.02;8.10;;;6.80;80.60;;;;;;5073134;28;20059;-14
2022/12/03 04:54:26;;;;;;;14.98;8.30;;;6.90;80.60;;;;;;5073123;28;20057;-14
2022/12/03 04:56:52;;;;;;;12.98;7.70;;;6.90;80.60;;;;;;5072559;28;20376;-16
2022/12/03 04:59:18;;;;;;;15.85;9.00;;;6.90;80.60;;;;;;5073039;28;20021;-15
2022/12/03 05:01:43;;;;;;;14.63;8.15;;;6.80;80.60;;;;;;5072705;28;20392;-13
2022/12/03 05:04:10;;;;;;;14.40;8.88;;;6.90;80.70;;;;;;5072981;28;20024;-14
2022/12/03 05:06:37;;;;;;;12.43;6.88;;;6.80;80.80;;;;;;5072543;28;20464;-16
2022/12/03 05:09:03;;;;;;;14.63;8.95;;;6.80;80.70;;;;;;5072234;28;20404;-15
2022/12/03 05:11:29;;;;;;;13.43;7.72;;;6.80;80.90;;;;;;5072940;28;20101;-15
2022/12/03 05:13:55;;;;;;;13.35;7.38;;;6.80;80.90;;;;;;5072480;28;20484;-14
2022/12/03 05:16:21;;;;;;;16.35;8.82;;;6.70;80.90;;;;;;5072607;28;20025;-14
2022/12/03 05:18:47;;;;;;;15.55;8.52;;;6.70;81.00;;;;;;5072684;28;20025;-15
2022/12/03 05:21:13;;;;;;;15.48;8.63;;;6.70;81.20;;;;;;5073123;28;20392;-14
2022/12/03 05:23:39;;;;;;;15.52;8.05;;;6.60;81.40;;;;;;5072780;28;20060;-15
2022/12/03 05:26:05;;;;;;;14.40;8.50;;;6.60;81.50;;;;;;5072455;28;20028;-15
2022/12/03 05:28:31;;;;;;;14.50;9.00;;;6.60;81.70;;;;;;5072330;28;20033;-15
2022/12/03 05:30:57;;;;;;;16.17;8.93;;;6.50;82.10;;;;;;5072161;28;20393;-15
2022/12/03 05:33:23;;;;;;;15.65;9.48;;;6.50;81.80;;;;;;5072481;28;20071;-14
2022/12/03 05:35:49;;;;;;;16.58;9.20;;;6.50;81.70;;;;;;5072823;28;20033;-15
2022/12/03 05:38:15;;;;;;;15.55;8.77;;;6.50;82.20;;;;;;5071082;28;20078;-15
2022/12/03 05:40:41;;;;;;;16.40;9.27;;;6.50;82.30;;;;;;5072711;28;20017;-14
2022/12/03 05:43:06;;;;;;;13.70;8.32;;;6.40;82.40;;;;;;5072168;28;20059;-16
2022/12/03 05:45:35;;;;;;;13.95;8.05;;;6.50;82.10;;;;;;5072469;28;20032;-15
2022/12/03 05:48:03;;;;;;;13.60;7.80;;;6.50;81.90;;;;;;5074407;28;20365;-16
2022/12/03 05:50:31;;;;;;;12.65;7.90;;;6.50;81.80;;;;;;5076461;28;20139;-15
2022/12/03 05:52:57;;;;;;;13.63;7.57;;;6.50;82.20;;;;;;5076354;28;20024;-15
2022/12/03 05:55:24;;;;;;;14.43;8.50;;;6.50;81.80;;;;;;5076439;28;20044;-15
2022/12/03 05:57:50;;;;;;;13.98;7.57;;;6.60;81.80;;;;;;5076878;28;20020;-15
2022/12/03 06:00:25;;;;;;;14.43;7.85;;;6.60;82.00;;;;;;5076222;28;20381;-16
2022/12/03 06:02:51;;;;;;;12.68;7.55;;;6.60;82.20;;;;;;5075841;28;20024;-15
2022/12/03 06:05:20;;;;;;;13.98;7.85;;;6.60;82.70;;;;;;5076299;28;20016;-15
2022/12/03 06:07:48;;;;;;;14.00;7.80;;;6.60;82.90;;;;;;5075612;28;20033;-14
2022/12/03 06:10:18;;;;;;;14.13;7.90;;;6.60;83.10;;;;;;5076050;28;20024;-15
2022/12/03 06:12:44;;;;;;;14.32;7.35;;;6.60;83.10;;;;;;5076237;28;20032;-16
2022/12/03 06:15:11;;;;;;;12.20;7.15;;;6.60;83.20;;;;;;5075449;28;20414;-16
2022/12/03 06:17:37;;;;;;;12.32;7.55;;;6.60;82.90;;;;;;5075718;28;20464;-15
2022/12/03 06:20:04;;;;;;;12.05;6.95;;;6.70;83.20;;;;;;5075949;28;20539;-15
2022/12/03 06:22:30;;;;;;;14.15;7.55;;;6.70;83.50;;;;;;5075870;28;20030;-16
2022/12/03 06:24:56;;;;;;;12.52;6.85;;;6.70;83.70;;;;;;5075361;28;20120;-16
2022/12/03 06:27:22;;;;;;;12.23;7.72;;;6.70;83.50;;;;;;5075521;28;20502;-17
2022/12/03 06:29:48;;;;;;;14.30;8.38;;;6.70;83.90;;;;;;5075496;28;20082;-15
2022/12/03 06:32:13;;;;;;;11.80;7.32;;;6.70;83.90;;;;;;5075657;28;20035;-15
2022/12/03 06:34:39;;;;;;;13.27;7.22;;;6.80;83.90;;;;;;5075577;28;20484;-16
2022/12/03 06:37:05;;;;;;;11.73;7.10;;;6.80;84.00;;;;;;5075321;28;20023;-15
2022/12/03 06:39:31;;;;;;;21.75;10.70;;;6.80;83.70;;;;;;5075693;28;20434;-16
2022/12/03 06:41:57;;;;;;;26.60;12.02;;;6.80;83.90;;;;;;5075278;28;20024;-16
2022/12/03 06:44:23;;;;;;;28.40;12.35;;;6.80;83.80;;;;;;5075173;28;20025;-16
2022/12/03 06:46:49;;;;;;;22.05;11.70;;;6.90;84.20;;;;;;5075576;28;20028;-15
2022/12/03 06:49:15;;;;;;;18.15;9.30;;;6.90;84.20;;;;;;5075160;28;20090;-16
2022/12/03 06:51:41;;;;;;;18.55;9.55;;;6.90;84.30;;;;;;5075251;28;20052;-15
2022/12/03 06:54:07;;;;;;;22.85;10.98;;;6.90;84.10;;;;;;5075409;28;20021;-16
2022/12/03 06:56:34;;;;;;;12.80;7.50;;;6.90;84.30;;;;;;5075109;28;20025;-16
2022/12/03 06:59:00;;;;;;;18.90;9.38;;;6.90;84.30;;;;;;5073791;28;20142;-14
2022/12/03 07:01:25;;;;;;;15.50;7.97;;;6.90;84.40;;;;;;5075384;28;20059;-14
2022/12/03 07:03:51;;;;;;;13.55;8.13;;;6.90;84.50;;;;;;5073858;28;20059;-14
2022/12/03 07:06:18;;;;;;;12.88;7.70;;;6.90;84.50;;;;;;5075248;28;20027;-16
2022/12/03 07:08:44;;;;;;;11.43;7.38;;;6.90;84.60;;;;;;5074589;28;20048;-14
2022/12/03 07:11:29;;;;;;;14.02;7.75;;;6.90;84.80;;;;;;5074912;28;20115;-14
2022/12/03 07:13:59;;;;;;;13.00;7.45;;;6.90;84.80;;;;;;5074567;28;20029;-14
2022/12/03 07:16:26;;;;;;;12.77;7.45;;;6.90;84.90;;;;;;5074769;28;20077;-15
2022/12/03 07:18:52;;;;;;;14.52;8.63;;;6.90;85.00;;;;;;5074761;28;20031;-15
2022/12/03 07:21:18;;;;;;;13.65;7.63;;;6.90;85.10;;;;;;5073883;28;20392;-16
2022/12/03 07:23:44;;;;;;;13.43;7.80;;;6.90;85.10;;;;;;5074876;28;20078;-15
2022/12/03 07:26:10;;;;;;;11.95;6.95;;;6.90;85.20;;;;;;5075115;28;20036;-14
2022/12/03 07:28:36;;;;;;;12.80;6.60;;;6.90;85.30;;;;;;5074279;28;20040;-14
2022/12/03 07:31:02;;;;;;;11.30;6.72;;;6.90;85.30;;;;;;5074558;28;20024;-15
2022/12/03 07:33:28;;;;;;;11.80;6.68;;;6.90;85.40;;;;;;5073152;28;20078;-14
2022/12/03 07:35:54;;;;;;;12.27;7.13;;;6.90;85.50;;;;;;5073086;28;20028;-14
2022/12/03 07:38:20;;;;;;;12.65;7.20;;;6.90;85.60;;;;;;5074615;28;20029;-13
2022/12/03 07:40:45;;;;;;;12.57;6.97;;;6.90;85.60;;;;;;5074559;28;20605;-13
2022/12/03 07:43:12;;;;;;;13.23;7.72;;;7.00;85.80;;;;;;5074078;28;20031;-13
2022/12/03 07:45:37;;;;;;;12.43;7.47;;;6.90;85.90;;;;;;5074299;28;20027;-13
2022/12/03 07:48:03;;;;;;;13.90;7.47;;;7.00;85.70;;;;;;5074373;28;20373;-13
2022/12/03 07:50:29;;;;;;;13.52;8.32;;;7.00;85.70;;;;;;5074080;28;20093;-13
2022/12/03 07:52:55;;;;;;;14.43;8.48;;;7.00;85.60;;;;;;5073707;28;20025;-12
2022/12/03 07:55:23;;;;;;;13.73;8.25;;;7.00;85.50;;;;;;5074262;28;20025;-13
2022/12/03 07:57:49;;;;;;;15.32;7.85;;;7.00;85.40;;;;;;5074231;28;20188;-14
2022/12/03 08:00:15;;;;;;;16.10;8.63;;;7.00;85.50;;;;;;5073779;28;20463;-14
2022/12/03 08:02:41;;;;;;;15.60;9.30;;;7.00;86.10;;;;;;5074059;28;20016;-14
2022/12/03 08:05:07;;;;;;;14.13;8.10;;;7.00;85.90;;;;;;5073942;28;20522;-13
2022/12/03 08:07:33;;;;;;;15.48;9.07;;;7.00;85.90;;;;;;5073715;28;20047;-13
2022/12/03 08:09:59;;;;;;;13.55;8.85;;;7.00;86.00;;;;;;5073329;28;20485;-13
2022/12/03 08:12:38;;;;;;;15.73;9.57;;;7.00;85.70;;;;;;5073833;28;20519;-13
2022/12/03 08:15:19;;;;;;;15.02;8.48;;;7.00;85.60;;;;;;5073101;28;20041;-11
2022/12/03 08:17:52;;;;;;;14.90;8.38;;;7.10;85.20;;;;;;5073861;28;20484;-13
2022/12/03 08:20:21;;;;;;;13.43;7.72;;;7.10;85.00;;;;;;5073809;28;20380;-13
2022/12/03 08:22:50;;;;;;;15.63;8.60;;;7.10;85.00;;;;;;5073187;28;20480;-18
2022/12/03 08:25:20;;;;;;;14.73;8.80;;;7.10;85.00;;;;;;5073695;28;20090;-12
2022/12/03 08:27:46;;;;;;;11.18;6.78;;;7.20;85.10;;;;;;5073778;28;20105;-13
2022/12/03 08:30:14;;;;;;;13.93;7.50;;;7.30;85.00;;;;;;5073164;28;20039;-12
2022/12/03 08:32:40;;;;;;;12.48;7.25;;;7.30;84.90;;;;;;5073146;28;20476;-13
2022/12/03 08:35:19;;;;;;;15.68;8.98;;;7.40;84.80;;;;;;5073142;28;20028;-12
2022/12/03 08:37:46;;;;;;;14.73;8.10;;;7.50;84.60;;;;;;5073141;28;20161;-14
2022/12/03 08:40:45;;;;;;;13.80;6.97;;;7.50;84.40;;;;;;5073338;28;20020;-13
2022/12/03 08:43:21;;;;;;;12.60;7.35;;;7.60;84.20;;;;;;5030950;28;20117;-13
2022/12/03 08:45:48;;;;;;;14.13;7.35;;;7.70;84.10;;;;;;5031414;28;20037;-12
2022/12/03 08:48:23;;;;;;;11.20;6.45;;;7.80;84.10;;;;;;5030961;28;20083;-12
2022/12/03 08:50:50;;;;;;;16.73;8.95;;;7.80;83.90;;;;;;5014227;28;20452;-13
2022/12/03 08:53:37;;;;;;;15.90;8.02;;;7.90;84.30;;;;;;4992235;28;20053;-12
2022/12/03 08:56:19;;;;;;;19.10;9.98;;;7.90;84.20;;;;;;5030805;28;20022;-12
2022/12/03 08:58:57;;;;;;;15.70;8.80;;;7.90;84.30;;;;;;5030998;28;20037;-13
2022/12/03 09:01:39;;;;;;;19.08;11.20;;;8.00;84.60;;;;;;5030795;28;20141;-12
2022/12/03 09:04:27;;;;;;;20.52;11.82;;;8.00;84.20;;;;;;5030820;28;20501;-12
2022/12/03 09:06:54;;;;;;;20.77;10.60;;;8.00;83.70;;;;;;5022021;28;20033;-13
2022/12/03 09:09:21;;;;;;;19.17;11.23;;;8.00;83.90;;;;;;5030157;28;20140;-12
2022/12/03 09:11:48;;;;;;;18.45;10.93;;;8.10;83.70;;;;;;5030648;28;20056;-12
2022/12/03 09:14:16;;;;;;;19.98;11.20;;;8.00;83.80;;;;;;5030462;28;20029;-12
2022/12/03 09:16:42;;;;;;;21.02;10.73;;;8.10;83.40;;;;;;5030636;28;20036;-13
2022/12/03 09:19:09;;;;;;;19.83;11.35;;;8.10;83.40;;;;;;5058546;28;20040;-12
2022/12/03 09:21:34;;;;;;;19.80;11.10;;;8.10;83.20;;;;;;5072415;28;20028;-12
2022/12/03 09:24:00;;;;;;;19.65;11.43;;;8.20;83.20;;;;;;5072853;28;20028;-13
2022/12/03 09:26:27;;;;;;;20.17;12.07;;;8.10;83.40;;;;;;5072561;28;20540;-12
2022/12/03 09:28:53;;;;;;;21.13;11.38;;;8.10;83.40;;;;;;5072111;28;20484;-13
2022/12/03 09:31:19;;;;;;;19.23;11.43;;;8.20;83.60;;;;;;5072827;28;20028;-13
2022/12/03 09:33:44;;;;;;;20.77;12.40;;;8.20;84.00;;;;;;5072789;28;20338;-13
2022/12/03 09:36:10;;;;;;;20.40;11.95;;;8.20;83.70;;;;;;5072475;28;20127;-13
2022/12/03 09:38:36;;;;;;;19.23;11.73;;;8.20;83.50;;;;;;5072390;28;20032;-13
2022/12/03 09:41:03;;;;;;;19.45;12.25;;;8.20;83.30;;;;;;5072533;28;20024;-13
2022/12/03 09:43:32;;;;;;;19.10;11.52;;;8.30;83.20;;;;;;5072431;28;20020;-12
2022/12/03 09:45:58;;;;;;;20.30;11.63;;;8.30;83.00;;;;;;5072579;28;20029;-13
2022/12/03 09:48:24;;;;;;;22.58;13.45;;;8.30;83.10;;;;;;5072238;28;20025;-12
2022/12/03 09:50:50;;;;;;;24.55;14.23;;;8.30;83.20;;;;;;5072323;28;20090;-13
2022/12/03 09:53:20;;;;;;;19.55;11.63;;;8.30;83.10;;;;;;5072331;28;20117;-13
2022/12/03 09:55:47;;;;;;;23.25;13.60;;;8.40;83.30;;;;;;5072546;28;20033;-12
2022/12/03 09:58:16;;;;;;;20.40;11.80;;;8.40;83.40;;;;;;5072551;28;20024;-13
2022/12/03 10:00:47;;;;;;;19.63;11.20;;;8.40;83.60;;;;;;5070977;28;20427;-14
2022/12/03 10:03:15;;;;;;;19.58;11.13;;;8.50;83.20;;;;;;5072688;28;20056;-14
2022/12/03 10:05:41;;;;;;;23.75;13.80;;;8.60;83.20;;;;;;5072280;28;20029;-13
2022/12/03 10:08:10;;;;;;;21.38;12.60;;;8.60;83.20;;;;;;5071831;28;20048;-13
2022/12/03 10:10:39;;;;;;;20.63;12.30;;;8.60;83.30;;;;;;5072247;28;20082;-10
2022/12/03 10:13:10;;;;;;;21.58;12.95;;;8.60;83.60;;;;;;5072014;28;20032;-10
2022/12/03 10:15:36;;;;;;;21.63;13.10;;;8.70;84.00;;;;;;5072354;28;20440;-11
2022/12/03 10:18:18;;;;;;;25.20;14.15;;;8.70;84.10;;;;;;5072026;28;20037;-11
2022/12/03 10:20:44;;;;;;;23.25;13.70;;;8.70;84.10;;;;;;5072227;28;20032;-12
2022/12/03 10:23:22;;;;;;;23.27;13.40;;;8.80;84.00;;;;;;5072154;28;20029;-12
2022/12/03 10:25:52;;;;;;;21.98;12.88;;;8.80;83.90;;;;;;5072331;28;20025;-12
2022/12/03 10:28:36;;;;;;;22.10;13.50;;;8.90;84.00;;;;;;5071853;28;20040;-11
2022/12/03 10:31:05;;;;;;;24.27;12.15;;;8.90;83.80;;;;;;5071648;28;20032;-12
2022/12/03 10:33:34;;;;;;;18.92;12.10;;;8.90;83.60;;;;;;5073655;28;20384;-11
2022/12/03 10:36:22;;;;;;;20.90;12.15;;;9.00;83.60;;;;;;5075504;28;20029;-11
2022/12/03 10:39:14;;;;;;;22.45;12.68;;;9.10;83.50;;;;;;5075339;28;20040;-12
2022/12/03 10:41:42;;;;;;;22.20;13.98;;;9.20;83.50;;;;;;5075723;28;20051;-11
2022/12/03 10:44:18;;;;;;;22.35;13.73;;;9.20;83.30;;;;;;5075461;28;20013;-13
2022/12/03 10:46:46;;;;;;;21.23;13.10;;;9.20;82.70;;;;;;5075246;28;20029;-12
2022/12/03 10:49:17;;;;;;;19.10;12.23;;;9.20;82.00;;;;;;5075224;28;20021;-12
2022/12/03 10:51:46;;;;;;;21.58;12.98;;;9.30;81.50;;;;;;5075788;28;20095;-12
2022/12/03 10:54:17;;;;;;;19.15;12.35;;;9.40;81.30;;;;;;5075130;28;20501;-12
2022/12/03 10:56:45;;;;;;;17.52;11.18;;;9.40;81.60;;;;;;5075107;28;20056;-12
2022/12/03 10:59:17;;;;;;;16.83;10.30;;;9.50;80.30;;;;;;5075054;28;20525;-12
2022/12/03 11:01:44;;;;;;;15.70;9.60;;;9.60;80.90;;;;;;5075067;28;20463;-12
2022/12/03 11:04:22;;;;;;;16.50;10.13;;;9.50;78.50;;;;;;5074947;28;20120;-13
2022/12/03 11:06:49;;;;;;;13.57;9.05;;;9.50;79.70;;;;;;5074858;28;20514;-13
2022/12/03 11:09:31;;;;;;;13.18;8.35;;;9.40;78.60;;;;;;5074728;28;20105;-12
2022/12/03 11:12:06;;;;;;;13.73;8.43;;;9.40;79.20;;;;;;5073618;28;20037;-12
2022/12/03 11:15:04;;;;;;;15.55;8.20;;;9.40;78.90;;;;;;5074731;28;20025;-13
2022/12/03 11:17:50;;;;;;;14.35;8.30;;;9.40;79.00;;;;;;5075182;28;20032;-12
2022/12/03 11:20:19;;;;;;;12.18;7.55;;;9.40;79.30;;;;;;5074745;28;20035;-12
2022/12/03 11:22:52;;;;;;;11.32;7.47;;;9.40;78.50;;;;;;5074590;28;20025;-12
2022/12/03 11:25:24;;;;;;;12.13;7.37;;;9.40;77.50;;;;;;5074711;28;20056;-11
2022/12/03 11:28:25;;;;;;;11.65;7.20;;;9.30;78.30;;;;;;5073200;28;20139;-12
2022/12/03 11:30:52;;;;;;;11.77;7.28;;;9.30;77.20;;;;;;5032116;28;20472;-12
2022/12/03 11:33:24;;;;;;;12.27;7.72;;;9.30;78.00;;;;;;5015945;28;20073;-12
2022/12/03 11:36:04;;;;;;;13.68;7.60;;;9.30;77.90;;;;;;5032406;28;20096;-12
2022/12/03 11:38:36;;;;;;;14.05;8.25;;;9.40;78.40;;;;;;5032306;28;20083;-11
2022/12/03 11:41:38;;;;;;;11.20;7.40;;;9.40;77.90;;;;;;5032088;28;20033;-13
2022/12/03 11:44:29;;;;;;;13.30;7.38;;;9.40;78.00;;;;;;5030003;28;20417;-12
2022/12/03 11:46:57;;;;;;;13.77;8.40;;;9.40;78.20;;;;;;5031684;28;20171;-12
2022/12/03 11:49:44;;;;;;;14.65;8.18;;;9.40;78.20;;;;;;5032215;28;20026;-12
2022/12/03 11:52:40;;;;;;;12.05;7.10;;;9.30;78.90;;;;;;5032659;28;20169;-13
2022/12/03 11:55:31;;;;;;;11.55;7.57;;;9.20;79.00;;;;;;5031131;28;20140;-12
2022/12/03 11:58:00;;;;;;;14.48;8.38;;;9.20;79.20;;;;;;5032081;28;20037;-13
2022/12/03 12:00:26;;;;;;;13.13;7.80;;;9.10;79.20;;;;;;5032118;28;20109;-12
2022/12/03 12:02:55;;;;;;;12.00;7.97;;;9.20;79.90;;;;;;5031701;28;20029;-12
2022/12/03 12:05:29;;;;;;;12.27;7.05;;;9.10;79.80;;;;;;5055744;28;20032;-12
2022/12/03 12:07:55;;;;;;;12.35;7.10;;;9.10;79.40;;;;;;5073469;28;20537;-11
2022/12/03 12:10:47;;;;;;;11.55;6.88;;;9.10;79.80;;;;;;5073753;28;20040;-11
2022/12/03 12:13:29;;;;;;;13.45;7.15;;;9.10;79.90;;;;;;5073636;28;20108;-12
2022/12/03 12:16:05;;;;;;;12.65;7.20;;;9.10;79.80;;;;;;5072315;28;20025;-11
2022/12/03 12:18:41;;;;;;;11.18;7.32;;;9.20;80.30;;;;;;5072317;28;20496;-11
2022/12/03 12:21:55;;;;;;;12.57;8.20;;;9.20;80.00;;;;;;5073284;28;20070;-12
2022/12/03 12:24:39;;;;;;;11.40;7.37;;;9.40;80.00;;;;;;5032087;28;20041;-13
2022/12/03 12:27:08;;;;;;;15.10;9.10;;;9.50;79.30;;;;;;5031009;28;20037;-11
2022/12/03 12:29:35;;;;;;;10.65;7.13;;;9.60;79.80;;;;;;5031475;28;20044;-11
2022/12/03 12:32:16;;;;;;;12.88;7.28;;;9.70;79.70;;;;;;5031455;28;20513;-12
2022/12/03 12:34:46;;;;;;;12.52;8.10;;;9.70;79.70;;;;;;5031525;28;20064;-12
2022/12/03 12:37:30;;;;;;;13.80;8.18;;;9.70;78.90;;;;;;5031383;28;20025;-12
2022/12/03 12:39:56;;;;;;;14.77;7.18;;;9.70;78.90;;;;;;5031506;28;20444;-12
2022/12/03 12:42:36;;;;;;;16.10;8.20;;;9.60;78.60;;;;;;5031295;28;20069;-12
2022/12/03 12:45:14;;;;;;;11.95;6.97;;;9.60;78.70;;;;;;5030585;28;21061;-12
2022/12/03 12:48:05;;;;;;;12.45;6.75;;;9.60;78.80;;;;;;5030986;28;20585;-12
2022/12/03 12:50:34;;;;;;;11.38;6.68;;;9.60;79.30;;;;;;5031021;28;20029;-12
2022/12/03 12:53:15;;;;;;;11.73;7.15;;;9.60;79.40;;;;;;5030738;28;20517;-11
2022/12/03 12:55:41;;;;;;;12.30;7.32;;;9.60;78.90;;;;;;5030868;28;20060;-11
2022/12/03 12:58:19;;;;;;;13.38;8.13;;;9.50;78.60;;;;;;5014274;28;20053;-12
2022/12/03 13:01:05;;;;;;;11.52;7.13;;;9.60;78.80;;;;;;5052153;28;20028;-11
2022/12/03 13:03:37;;;;;;;13.48;9.00;;;9.50;78.80;;;;;;5072908;28;20484;-12
2022/12/03 13:06:04;;;;;;;14.27;9.35;;;9.50;79.00;;;;;;5073114;28;20025;-12
2022/12/03 13:08:38;;;;;;;14.63;9.73;;;9.50;79.40;;;;;;5072336;28;20125;-12
2022/12/03 13:11:05;;;;;;;14.98;8.95;;;9.50;79.10;;;;;;5072615;28;20111;-12
2022/12/03 13:13:39;;;;;;;15.38;9.82;;;9.50;79.10;;;;;;5071302;28;20383;-12
2022/12/03 13:16:20;;;;;;;13.60;9.60;;;9.60;78.90;;;;;;5072651;28;20020;-12